sensor_id;sensor_type;location;lat;lon;timestamp;pressure;altitude;pressure_sealevel;temperature;humidity
40692;BME280;26377;53.344;14.886;2022-12-10T00:01:40;100767.84;;;0.62;67.33
40692;BME280;26377;53.344;14.886;2022-12-10T00:04:09;100760.92;;;0.58;67.21
40692;BME280;26377;53.344;14.886;2022-12-10T00:06:38;100766.59;;;0.60;67.28
40692;BME280;26377;53.344;14.886;2022-12-10T00:09:09;100760.07;;;0.59;67.29
40692;BME280;26377;53.344;14.886;2022-12-10T00:11:40;100764.80;;;0.62;67.37
40692;BME280;26377;53.344;14.886;2022-12-10T00:14:08;100769.11;;;0.66;67.45
40692;BME280;26377;53.344;14.886;2022-12-10T00:16:37;100760.80;;;0.70;67.41
40692;BME280;26377;53.344;14.886;2022-12-10T00:19:04;100769.92;;;0.71;67.45
40692;BME280;26377;53.344;14.886;2022-12-10T00:21:33;100764.21;;;0.75;67.50
40692;BME280;26377;53.344;14.886;2022-12-10T00:24:02;100764.59;;;0.79;67.54
40692;BME280;26377;53.344;14.886;2022-12-10T00:26:34;100775.84;;;0.84;67.57
40692;BME280;26377;53.344;14.886;2022-12-10T00:29:04;100769.72;;;0.86;67.55
40692;BME280;26377;53.344;14.886;2022-12-10T00:31:34;100774.45;;;0.90;67.60
40692;BME280;26377;53.344;14.886;2022-12-10T00:34:05;100774.45;;;0.90;67.52
40692;BME280;26377;53.344;14.886;2022-12-10T00:36:36;100772.80;;;0.84;67.28
40692;BME280;26377;53.344;14.886;2022-12-10T00:39:10;100775.05;;;0.79;67.35
40692;BME280;26377;53.344;14.886;2022-12-10T00:41:40;100782.87;;;0.79;67.47
40692;BME280;26377;53.344;14.886;2022-12-10T00:44:08;100777.62;;;0.82;67.56
40692;BME280;26377;53.344;14.886;2022-12-10T00:46:35;100778.94;;;0.82;67.58
40692;BME280;26377;53.344;14.886;2022-12-10T00:49:03;100781.14;;;0.79;67.49
40692;BME280;26377;53.344;14.886;2022-12-10T00:51:31;100775.47;;;0.78;67.52
40692;BME280;26377;53.344;14.886;2022-12-10T00:53:59;100780.27;;;0.79;67.55
40692;BME280;26377;53.344;14.886;2022-12-10T00:56:29;100774.61;;;0.79;67.66
40692;BME280;26377;53.344;14.886;2022-12-10T00:58:57;100784.16;;;0.82;67.66
40692;BME280;26377;53.344;14.886;2022-12-10T01:01:36;100777.58;;;0.83;67.69
40692;BME280;26377;53.344;14.886;2022-12-10T01:04:08;100780.27;;;0.79;67.52
40692;BME280;26377;53.344;14.886;2022-12-10T01:06:45;100778.14;;;0.75;67.65
40692;BME280;26377;53.344;14.886;2022-12-10T01:09:17;100780.68;;;0.80;67.76
40692;BME280;26377;53.344;14.886;2022-12-10T01:11:47;100784.17;;;0.80;67.80
40692;BME280;26377;53.344;14.886;2022-12-10T01:14:18;100780.68;;;0.80;67.76
40692;BME280;26377;53.344;14.886;2022-12-10T01:16:49;100788.09;;;0.79;67.72
40692;BME280;26377;53.344;14.886;2022-12-10T01:19:18;100786.37;;;0.78;67.76
40692;BME280;26377;53.344;14.886;2022-12-10T01:21:50;100786.89;;;0.71;67.61
40692;BME280;26377;53.344;14.886;2022-12-10T01:24:22;100785.68;;;0.64;67.62
40692;BME280;26377;53.344;14.886;2022-12-10T01:26:50;100785.30;;;0.58;67.72
40692;BME280;26377;53.344;14.886;2022-12-10T01:29:18;100793.61;;;0.55;67.72
40692;BME280;26377;53.344;14.886;2022-12-10T01:31:45;100786.70;;;0.49;67.76
40692;BME280;26377;53.344;14.886;2022-12-10T01:34:14;100791.10;;;0.46;67.84
40692;BME280;26377;53.344;14.886;2022-12-10T01:36:44;100788.08;;;0.45;67.95
40692;BME280;26377;53.344;14.886;2022-12-10T01:39:14;100794.61;;;0.43;67.95
40692;BME280;26377;53.344;14.886;2022-12-10T01:41:49;100798.11;;;0.42;68.03
40692;BME280;26377;53.344;14.886;2022-12-10T01:46:56;100791.22;;;0.33;67.93
40692;BME280;26377;53.344;14.886;2022-12-10T01:49:32;100795.20;;;0.28;67.95
40692;BME280;26377;53.344;14.886;2022-12-10T01:52:02;100795.22;;;0.24;68.04
40692;BME280;26377;53.344;14.886;2022-12-10T01:54:40;100789.56;;;0.27;68.20
40692;BME280;26377;53.344;14.886;2022-12-10T01:57:15;100796.03;;;0.31;68.33
40692;BME280;26377;53.344;14.886;2022-12-10T02:00:01;100796.00;;;0.36;68.35
40692;BME280;26377;53.344;14.886;2022-12-10T02:02:46;100788.58;;;0.38;68.36
40692;BME280;26377;53.344;14.886;2022-12-10T02:05:40;100791.59;;;0.41;68.37
40692;BME280;26377;53.344;14.886;2022-12-10T02:11:28;100779.95;;;0.30;68.29
40692;BME280;26377;53.344;14.886;2022-12-10T02:14:02;100780.45;;;0.23;68.35
40692;BME280;26377;53.344;14.886;2022-12-10T02:16:44;100778.81;;;0.15;68.37
40692;BME280;26377;53.344;14.886;2022-12-10T02:19:15;100779.30;;;0.10;68.48
40692;BME280;26377;53.344;14.886;2022-12-10T02:21:56;100790.59;;;0.09;68.63
40692;BME280;26377;53.344;14.886;2022-12-10T02:24:29;100787.98;;;0.09;68.72
40692;BME280;26377;53.344;14.886;2022-12-10T02:27:10;100790.16;;;0.11;68.75
40692;BME280;26377;53.344;14.886;2022-12-10T02:29:46;100791.88;;;0.10;68.79
40692;BME280;26377;53.344;14.886;2022-12-10T02:32:19;100789.26;;;0.13;68.88
40692;BME280;26377;53.344;14.886;2022-12-10T02:34:51;100788.79;;;0.15;68.95
40692;BME280;26377;53.344;14.886;2022-12-10T02:37:29;100790.08;;;0.18;68.98
40692;BME280;26377;53.344;14.886;2022-12-10T02:40:01;100790.97;;;0.16;68.82
40692;BME280;26377;53.344;14.886;2022-12-10T02:42:34;100790.55;;;0.17;68.93
40692;BME280;26377;53.344;14.886;2022-12-10T02:45:05;100793.57;;;0.18;69.00
40692;BME280;26377;53.344;14.886;2022-12-10T02:47:35;100793.11;;;0.18;68.89
40692;BME280;26377;53.344;14.886;2022-12-10T02:50:06;100799.22;;;0.15;68.79
40692;BME280;26377;53.344;14.886;2022-12-10T02:52:36;100798.41;;;0.10;68.83
40692;BME280;26377;53.344;14.886;2022-12-10T02:55:04;100796.27;;;0.08;68.94
40692;BME280;26377;53.344;14.886;2022-12-10T03:00:36;100789.27;;;0.10;69.02
40692;BME280;26377;53.344;14.886;2022-12-10T03:08:53;100792.27;;;0.16;69.21
40692;BME280;26377;53.344;14.886;2022-12-10T03:11:25;100795.77;;;0.17;69.20
40692;BME280;26377;53.344;14.886;2022-12-10T03:14:14;100793.11;;;0.18;69.27
40692;BME280;26377;53.344;14.886;2022-12-10T03:16:55;100793.97;;;0.22;69.31
40692;BME280;26377;53.344;14.886;2022-12-10T03:19:45;100790.02;;;0.23;69.27
40692;BME280;26377;53.344;14.886;2022-12-10T03:22:16;100785.28;;;0.18;69.24
40692;BME280;26377;53.344;14.886;2022-12-10T03:24:47;100792.27;;;0.16;69.21
40692;BME280;26377;53.344;14.886;2022-12-10T03:27:19;100781.03;;;0.09;69.17
40692;BME280;26377;53.344;14.886;2022-12-10T03:29:53;100787.55;;;0.09;69.26
40692;BME280;26377;53.344;14.886;2022-12-10T03:32:24;100794.05;;;0.13;69.33
40692;BME280;26377;53.344;14.886;2022-12-10T03:34:54;100792.75;;;0.14;69.33
40692;BME280;26377;53.344;14.886;2022-12-10T03:37:24;100797.08;;;0.15;69.33
40692;BME280;26377;53.344;14.886;2022-12-10T03:39:56;100794.05;;;0.14;69.33
40692;BME280;26377;53.344;14.886;2022-12-10T03:42:25;100791.39;;;0.17;69.38
40692;BME280;26377;53.344;14.886;2022-12-10T03:44:52;100797.49;;;0.16;69.31
40692;BME280;26377;53.344;14.886;2022-12-10T03:47:20;100793.16;;;0.15;69.35
40692;BME280;26377;53.344;14.886;2022-12-10T03:49:48;100802.78;;;0.10;69.25
40692;BME280;26377;53.344;14.886;2022-12-10T03:52:15;100791.48;;;0.08;69.32
40692;BME280;26377;53.344;14.886;2022-12-10T03:54:42;100793.68;;;0.04;69.27
40692;BME280;26377;53.344;14.886;2022-12-10T03:57:10;100789.36;;;0.01;69.40
40692;BME280;26377;53.344;14.886;2022-12-10T03:59:37;100789.83;;;-0.01;69.36
40692;BME280;26377;53.344;14.886;2022-12-10T04:02:04;100790.31;;;-0.07;69.25
40692;BME280;26377;53.344;14.886;2022-12-10T04:04:31;100785.58;;;-0.11;69.36
40692;BME280;26377;53.344;14.886;2022-12-10T04:06:59;100781.66;;;-0.09;69.47
40692;BME280;26377;53.344;14.886;2022-12-10T04:09:26;100782.51;;;-0.10;69.46
40692;BME280;26377;53.344;14.886;2022-12-10T04:11:57;100775.98;;;-0.09;69.56
40692;BME280;26377;53.344;14.886;2022-12-10T04:14:26;100781.67;;;-0.11;69.53
40692;BME280;26377;53.344;14.886;2022-12-10T04:17:12;100784.70;;;-0.11;69.50
40692;BME280;26377;53.344;14.886;2022-12-10T04:19:40;100784.27;;;-0.09;69.64
40692;BME280;26377;53.344;14.886;2022-12-10T04:22:09;100782.49;;;-0.07;69.67
40692;BME280;26377;53.344;14.886;2022-12-10T04:24:55;100786.81;;;-0.05;69.70
40692;BME280;26377;53.344;14.886;2022-12-10T04:27:41;100778.53;;;-0.03;69.78
40692;BME280;26377;53.344;14.886;2022-12-10T04:30:10;100784.14;;;0.01;69.84
40692;BME280;26377;53.344;14.886;2022-12-10T04:32:39;100780.64;;;0.04;69.86
40692;BME280;26377;53.344;14.886;2022-12-10T04:35:07;100782.81;;;0.06;69.87
40692;BME280;26377;53.344;14.886;2022-12-10T04:37:54;100778.44;;;0.06;69.87
40692;BME280;26377;53.344;14.886;2022-12-10T04:40:23;100778.48;;;0.05;69.78
40692;BME280;26377;53.344;14.886;2022-12-10T04:42:50;100781.10;;;0.03;69.78
40692;BME280;26377;53.344;14.886;2022-12-10T04:45:18;100778.50;;;0.02;69.77
40692;BME280;26377;53.344;14.886;2022-12-10T04:47:45;100777.22;;;-0.01;69.67
40692;BME280;26377;53.344;14.886;2022-12-10T04:50:13;100776.80;;;-0.02;69.75
40692;BME280;26377;53.344;14.886;2022-12-10T04:52:41;100777.22;;;-0.03;69.72
40692;BME280;26377;53.344;14.886;2022-12-10T04:55:08;100776.80;;;-0.04;69.76
40692;BME280;26377;53.344;14.886;2022-12-10T04:57:36;100780.29;;;-0.03;69.78
40692;BME280;26377;53.344;14.886;2022-12-10T05:00:04;100777.69;;;-0.05;69.79
40692;BME280;26377;53.344;14.886;2022-12-10T05:02:32;100779.46;;;-0.07;69.80
40692;BME280;26377;53.344;14.886;2022-12-10T05:05:00;100780.30;;;-0.06;69.84
40692;BME280;26377;53.344;14.886;2022-12-10T05:07:27;100775.09;;;-0.06;69.87
40692;BME280;26377;53.344;14.886;2022-12-10T05:09:55;100779.01;;;-0.08;69.81
40692;BME280;26377;53.344;14.886;2022-12-10T05:12:22;100779.06;;;-0.11;69.79
40692;BME280;26377;53.344;14.886;2022-12-10T05:14:50;100787.36;;;-0.16;69.71
40692;BME280;26377;53.344;14.886;2022-12-10T05:17:18;100786.50;;;-0.19;69.69
40692;BME280;26377;53.344;14.886;2022-12-10T05:19:45;100783.08;;;-0.26;69.73
40692;BME280;26377;53.344;14.886;2022-12-10T05:22:13;100781.81;;;-0.29;69.80
40692;BME280;26377;53.344;14.886;2022-12-10T05:24:58;100781.83;;;-0.30;69.87
40692;BME280;26377;53.344;14.886;2022-12-10T05:27:33;100782.70;;;-0.31;69.82
40692;BME280;26377;53.344;14.886;2022-12-10T05:29:58;100783.14;;;-0.33;69.86
40692;BME280;26377;53.344;14.886;2022-12-10T05:32:25;100783.61;;;-0.37;69.85
40692;BME280;26377;53.344;14.886;2022-12-10T05:34:53;100787.52;;;-0.37;69.87
40692;BME280;26377;53.344;14.886;2022-12-10T05:37:20;100794.04;;;-0.38;69.88
40692;BME280;26377;53.344;14.886;2022-12-10T05:39:47;100793.63;;;-0.41;69.81
40692;BME280;26377;53.344;14.886;2022-12-10T05:42:16;100796.28;;;-0.45;69.76
40692;BME280;26377;53.344;14.886;2022-12-10T05:44:43;100799.73;;;-0.45;69.92
40692;BME280;26377;53.344;14.886;2022-12-10T05:47:11;100806.23;;;-0.40;70.04
40692;BME280;26377;53.344;14.886;2022-12-10T05:49:38;100798.83;;;-0.38;70.03
40692;BME280;26377;53.344;14.886;2022-12-10T05:52:05;100803.98;;;-0.33;70.14
40692;BME280;26377;53.344;14.886;2022-12-10T05:54:33;100801.38;;;-0.32;70.14
40692;BME280;26377;53.344;14.886;2022-12-10T05:57:00;100798.77;;;-0.29;70.10
40692;BME280;26377;53.344;14.886;2022-12-10T05:59:27;100796.16;;;-0.29;70.02
40692;BME280;26377;53.344;14.886;2022-12-10T06:01:55;100799.23;;;-0.32;69.93
40692;BME280;26377;53.344;14.886;2022-12-10T06:04:22;100796.21;;;-0.35;70.00
40692;BME280;26377;53.344;14.886;2022-12-10T06:06:49;100792.30;;;-0.35;70.02
40692;BME280;26377;53.344;14.886;2022-12-10T06:09:17;100791.42;;;-0.35;69.98
40692;BME280;26377;53.344;14.886;2022-12-10T06:11:45;100796.22;;;-0.36;70.04
40692;BME280;26377;53.344;14.886;2022-12-10T06:14:13;100794.45;;;-0.36;70.06
40692;BME280;26377;53.344;14.886;2022-12-10T06:16:40;100792.30;;;-0.36;70.04
40692;BME280;26377;53.344;14.886;2022-12-10T06:19:08;100796.21;;;-0.35;70.07
40692;BME280;26377;53.344;14.886;2022-12-10T06:21:37;100797.52;;;-0.35;70.02
40692;BME280;26377;53.344;14.886;2022-12-10T06:24:06;100804.88;;;-0.36;69.99
40692;BME280;26377;53.344;14.886;2022-12-10T06:26:33;100808.78;;;-0.34;70.07
40692;BME280;26377;53.344;14.886;2022-12-10T06:29:00;100805.33;;;-0.35;70.00
40692;BME280;26377;53.344;14.886;2022-12-10T06:31:28;100801.43;;;-0.36;70.06
40692;BME280;26377;53.344;14.886;2022-12-10T06:33:55;100808.36;;;-0.35;70.07
40692;BME280;26377;53.344;14.886;2022-12-10T06:36:22;100798.81;;;-0.35;70.04
40692;BME280;26377;53.344;14.886;2022-12-10T06:38:49;100803.58;;;-0.36;70.03
40692;BME280;26377;53.344;14.886;2022-12-10T06:41:18;100803.16;;;-0.35;70.08
40692;BME280;26377;53.344;14.886;2022-12-10T06:43:47;100808.80;;;-0.37;69.98
40692;BME280;26377;53.344;14.886;2022-12-10T06:46:17;100807.53;;;-0.39;69.98
40692;BME280;26377;53.344;14.886;2022-12-10T06:48:46;100814.89;;;-0.37;70.02
40692;BME280;26377;53.344;14.886;2022-12-10T06:51:14;100820.56;;;-0.39;70.01
40692;BME280;26377;53.344;14.886;2022-12-10T06:53:41;100822.75;;;-0.41;69.96
40692;BME280;26377;53.344;14.886;2022-12-10T06:56:17;100820.98;;;-0.41;69.96
40692;BME280;26377;53.344;14.886;2022-12-10T06:58:46;100822.72;;;-0.40;70.05
40692;BME280;26377;53.344;14.886;2022-12-10T07:01:19;100830.11;;;-0.39;70.01
40692;BME280;26377;53.344;14.886;2022-12-10T07:03:52;100827.92;;;-0.37;70.01
40692;BME280;26377;53.344;14.886;2022-12-10T07:06:21;100834.84;;;-0.34;70.07
40692;BME280;26377;53.344;14.886;2022-12-10T07:08:50;100839.17;;;-0.30;70.04
40692;BME280;26377;53.344;14.886;2022-12-10T07:11:20;100831.34;;;-0.29;70.02
40692;BME280;26377;53.344;14.886;2022-12-10T07:13:49;100835.25;;;-0.29;69.96
40692;BME280;26377;53.344;14.886;2022-12-10T07:16:25;100845.22;;;-0.27;70.00
40692;BME280;26377;53.344;14.886;2022-12-10T07:18:55;100840.42;;;-0.26;69.99
40692;BME280;26377;53.344;14.886;2022-12-10T07:21:27;100840.87;;;-0.25;69.98
40692;BME280;26377;53.344;14.886;2022-12-10T07:23:59;100843.02;;;-0.23;69.95
40692;BME280;26377;53.344;14.886;2022-12-10T07:26:33;100845.62;;;-0.21;70.00
40692;BME280;26377;53.344;14.886;2022-12-10T07:29:03;100848.64;;;-0.20;69.91
40692;BME280;26377;53.344;14.886;2022-12-10T07:31:32;100848.66;;;-0.22;69.85
40692;BME280;26377;53.344;14.886;2022-12-10T07:34:00;100852.56;;;-0.20;69.94
40692;BME280;26377;53.344;14.886;2022-12-10T07:36:28;100850.41;;;-0.21;69.81
40692;BME280;26377;53.344;14.886;2022-12-10T07:38:56;100856.06;;;-0.26;69.71
40692;BME280;26377;53.344;14.886;2022-12-10T07:41:24;100861.31;;;-0.27;69.67
40692;BME280;26377;53.344;14.886;2022-12-10T07:43:52;100860.86;;;-0.28;69.74
40692;BME280;26377;53.344;14.886;2022-12-10T07:46:31;100861.73;;;-0.26;69.83
40692;BME280;26377;53.344;14.886;2022-12-10T07:49:02;100866.91;;;-0.22;69.81
40692;BME280;26377;53.344;14.886;2022-12-10T07:51:30;100870.81;;;-0.20;69.77
40692;BME280;26377;53.344;14.886;2022-12-10T07:53:57;100872.11;;;-0.19;69.69
40692;BME280;26377;53.344;14.886;2022-12-10T07:56:25;100867.78;;;-0.20;69.65
40692;BME280;26377;53.344;14.886;2022-12-10T07:58:53;100871.64;;;-0.17;69.68
40692;BME280;26377;53.344;14.886;2022-12-10T08:01:23;100878.16;;;-0.15;69.66
40692;BME280;26377;53.344;14.886;2022-12-10T08:03:53;100876.42;;;-0.15;69.62
40692;BME280;26377;53.344;14.886;2022-12-10T08:06:24;100877.27;;;-0.14;69.53
40692;BME280;26377;53.344;14.886;2022-12-10T08:08:53;100882.06;;;-0.15;69.44
40692;BME280;26377;53.344;14.886;2022-12-10T08:11:21;100885.56;;;-0.18;69.41
40692;BME280;26377;53.344;14.886;2022-12-10T08:13:50;100887.74;;;-0.17;69.45
40692;BME280;26377;53.344;14.886;2022-12-10T08:16:19;100889.47;;;-0.18;69.44
40692;BME280;26377;53.344;14.886;2022-12-10T08:18:50;100886.45;;;-0.19;69.35
40692;BME280;26377;53.344;14.886;2022-12-10T08:21:20;100890.36;;;-0.20;69.23
40692;BME280;26377;53.344;14.886;2022-12-10T08:23:48;100888.64;;;-0.21;69.25
40692;BME280;26377;53.344;14.886;2022-12-10T08:26:18;100884.30;;;-0.22;69.27
40692;BME280;26377;53.344;14.886;2022-12-10T08:28:48;100887.76;;;-0.22;69.20
40692;BME280;26377;53.344;14.886;2022-12-10T08:31:18;100886.92;;;-0.24;69.14
40692;BME280;26377;53.344;14.886;2022-12-10T08:33:45;100889.95;;;-0.24;69.18
40692;BME280;26377;53.344;14.886;2022-12-10T08:36:14;100890.36;;;-0.22;69.18
40692;BME280;26377;53.344;14.886;2022-12-10T08:38:43;100892.13;;;-0.21;69.11
40692;BME280;26377;53.344;14.886;2022-12-10T08:41:14;100897.30;;;-0.19;69.08
40692;BME280;26377;53.344;14.886;2022-12-10T08:43:43;100895.10;;;-0.15;69.09
40692;BME280;26377;53.344;14.886;2022-12-10T08:46:12;100899.89;;;-0.13;68.98
40692;BME280;26377;53.344;14.886;2022-12-10T08:48:40;100895.97;;;-0.12;68.97
40692;BME280;26377;53.344;14.886;2022-12-10T08:51:09;100899.84;;;-0.10;68.91
40692;BME280;26377;53.344;14.886;2022-12-10T08:53:38;100901.61;;;-0.09;68.86
40692;BME280;26377;53.344;14.886;2022-12-10T08:56:06;100902.91;;;-0.09;68.77
40692;BME280;26377;53.344;14.886;2022-12-10T08:58:33;100903.33;;;-0.08;68.79
40692;BME280;26377;53.344;14.886;2022-12-10T09:01:11;100904.17;;;-0.06;68.78
40692;BME280;26377;53.344;14.886;2022-12-10T09:03:36;100911.56;;;-0.04;68.69
40692;BME280;26377;53.344;14.886;2022-12-10T09:06:07;100909.38;;;-0.03;68.66
40692;BME280;26377;53.344;14.886;2022-12-10T09:08:36;100906.30;;;-0.03;68.58
40692;BME280;26377;53.344;14.886;2022-12-10T09:11:16;100912.39;;;0.01;68.64
40692;BME280;26377;53.344;14.886;2022-12-10T09:13:46;100912.38;;;0.03;68.57
40692;BME280;26377;53.344;14.886;2022-12-10T09:16:13;100908.43;;;0.05;68.57
40692;BME280;26377;53.344;14.886;2022-12-10T09:18:40;100909.72;;;0.10;68.61
40692;BME280;26377;53.344;14.886;2022-12-10T09:21:14;100912.70;;;0.15;68.59
40692;BME280;26377;53.344;14.886;2022-12-10T09:23:43;100915.30;;;0.18;68.45
40692;BME280;26377;53.344;14.886;2022-12-10T09:26:13;100915.28;;;0.20;68.44
40692;BME280;26377;53.344;14.886;2022-12-10T09:28:42;100913.10;;;0.19;68.28
40692;BME280;26377;53.344;14.886;2022-12-10T09:31:12;100916.13;;;0.22;68.32
40692;BME280;26377;53.344;14.886;2022-12-10T09:33:40;100914.39;;;0.24;68.29
40692;BME280;26377;53.344;14.886;2022-12-10T09:36:10;100913.92;;;0.28;68.30
40692;BME280;26377;53.344;14.886;2022-12-10T09:38:40;100923.47;;;0.28;68.18
40692;BME280;26377;53.344;14.886;2022-12-10T09:43:55;100921.31;;;0.28;67.96
40692;BME280;26377;53.344;14.886;2022-12-10T09:52:22;100905.66;;;0.28;67.97
40692;BME280;26377;53.344;14.886;2022-12-10T09:54:54;100909.10;;;0.32;68.02
40692;BME280;26377;53.344;14.886;2022-12-10T09:57:37;100907.33;;;0.33;67.97
40692;BME280;26377;53.344;14.886;2022-12-10T10:02:51;100904.73;;;0.32;67.78
40692;BME280;26377;53.344;14.886;2022-12-10T10:05:23;100910.01;;;0.26;67.65
40692;BME280;26377;53.344;14.886;2022-12-10T10:07:58;100908.70;;;0.28;67.77
40692;BME280;26377;53.344;14.886;2022-12-10T10:10:37;100909.10;;;0.32;67.80
40692;BME280;26377;53.344;14.886;2022-12-10T10:13:25;100912.56;;;0.32;67.76
40692;BME280;26377;53.344;14.886;2022-12-10T10:19:04;100910.34;;;0.38;67.72
40692;BME280;26377;53.344;14.886;2022-12-10T10:21:49;100914.27;;;0.34;67.56
40692;BME280;26377;53.344;14.886;2022-12-10T10:24:24;100916.06;;;0.29;67.48
40692;BME280;26377;53.344;14.886;2022-12-10T10:27:36;100924.35;;;0.28;67.44
40692;BME280;26377;53.344;14.886;2022-12-10T10:29:46;100916.11;;;0.27;67.46
40692;BME280;26377;53.344;14.886;2022-12-10T10:32:24;100912.20;;;0.25;67.39
40692;BME280;26377;53.344;14.886;2022-12-10T10:34:56;100921.80;;;0.22;67.27
40692;BME280;26377;53.344;14.886;2022-12-10T10:37:51;100918.78;;;0.18;67.21
40692;BME280;26377;53.344;14.886;2022-12-10T10:40:06;100916.20;;;0.13;67.14
40692;BME280;26377;53.344;14.886;2022-12-10T10:42:43;100905.81;;;0.07;67.07
40692;BME280;26377;53.344;14.886;2022-12-10T10:48:14;100917.13;;;0.06;67.15
40692;BME280;26377;53.344;14.886;2022-12-10T10:56:29;100909.25;;;0.12;66.99
40692;BME280;26377;53.344;14.886;2022-12-10T10:59:04;100916.24;;;0.08;66.83
40692;BME280;26377;53.344;14.886;2022-12-10T11:01:49;100909.72;;;0.08;66.95
40692;BME280;26377;53.344;14.886;2022-12-10T11:04:37;100911.45;;;0.08;66.84
40692;BME280;26377;53.344;14.886;2022-12-10T11:07:14;100909.30;;;0.08;66.81
40692;BME280;26377;53.344;14.886;2022-12-10T11:09:39;100905.80;;;0.10;66.89
40692;BME280;26377;53.344;14.886;2022-12-10T11:12:20;100902.31;;;0.11;66.82
40692;BME280;26377;53.344;14.886;2022-12-10T11:14:57;100904.87;;;0.15;66.91
40692;BME280;26377;53.344;14.886;2022-12-10T11:17:26;100907.48;;;0.15;66.71
40692;BME280;26377;53.344;14.886;2022-12-10T11:20:00;100905.74;;;0.18;66.79
40692;BME280;26377;53.344;14.886;2022-12-10T11:22:33;100900.52;;;0.19;66.62
40692;BME280;26377;53.344;14.886;2022-12-10T11:25:00;100898.80;;;0.17;66.51
40692;BME280;26377;53.344;14.886;2022-12-10T11:30:23;100897.16;;;0.05;66.27
40692;BME280;26377;53.344;14.886;2022-12-10T11:35:39;100887.61;;;0.01;66.29
40692;BME280;26377;53.344;14.886;2022-12-10T11:38:32;100879.32;;;0.04;66.26
40692;BME280;26377;53.344;14.886;2022-12-10T11:47:19;100887.08;;;0.12;66.16
40692;BME280;26377;53.344;14.886;2022-12-10T11:56:08;100876.58;;;0.21;66.27
40692;BME280;26377;53.344;14.886;2022-12-10T11:58:52;100869.58;;;0.23;66.06
40692;BME280;26377;53.344;14.886;2022-12-10T12:13:35;100859.28;;;0.56;66.01
40692;BME280;26377;53.344;14.886;2022-12-10T12:16:14;100862.17;;;0.72;65.78
40692;BME280;26377;53.344;14.886;2022-12-10T12:18:50;100851.64;;;0.79;65.70
40692;BME280;26377;53.344;14.886;2022-12-10T12:21:22;100854.58;;;0.88;65.46
40692;BME280;26377;53.344;14.886;2022-12-10T12:26:47;100861.11;;;0.88;65.18
40692;BME280;26377;53.344;14.886;2022-12-10T12:29:33;100860.72;;;0.84;65.07
40692;BME280;26377;53.344;14.886;2022-12-10T12:34:46;100866.94;;;0.72;64.90
40692;BME280;26377;53.344;14.886;2022-12-10T12:37:20;100861.72;;;0.72;65.02
40692;BME280;26377;53.344;14.886;2022-12-10T12:45:32;100852.45;;;0.86;65.01
40692;BME280;26377;53.344;14.886;2022-12-10T12:53:42;100852.15;;;0.73;64.73
40692;BME280;26377;53.344;14.886;2022-12-10T13:01:53;100853.54;;;0.65;64.64
40692;BME280;26377;53.344;14.886;2022-12-10T13:04:21;100860.09;;;0.61;64.59
40692;BME280;26377;53.344;14.886;2022-12-10T13:07:53;100858.80;;;0.59;64.61
40692;BME280;26377;53.344;14.886;2022-12-10T13:09:47;100861.47;;;0.56;64.53
40692;BME280;26377;53.344;14.886;2022-12-10T13:12:27;100862.78;;;0.55;64.59
40692;BME280;26377;53.344;14.886;2022-12-10T13:15:11;100864.09;;;0.55;64.62
40692;BME280;26377;53.344;14.886;2022-12-10T13:20:52;100865.90;;;0.47;64.41
40692;BME280;26377;53.344;14.886;2022-12-10T13:23:52;100861.58;;;0.44;64.44
40692;BME280;26377;53.344;14.886;2022-12-10T13:26:27;100868.17;;;0.38;64.34
40692;BME280;26377;53.344;14.886;2022-12-10T13:31:41;100870.87;;;0.24;64.28
40692;BME280;26377;53.344;14.886;2022-12-10T13:34:30;100873.95;;;0.24;64.35
40692;BME280;26377;53.344;14.886;2022-12-10T13:37:14;100880.91;;;0.22;64.32
40692;BME280;26377;53.344;14.886;2022-12-10T13:39:53;100885.77;;;0.15;64.18
40692;BME280;26377;53.344;14.886;2022-12-10T13:42:32;100879.31;;;0.06;64.23
40692;BME280;26377;53.344;14.886;2022-12-10T13:45:27;100886.27;;;0.05;64.37
40692;BME280;26377;53.344;14.886;2022-12-10T13:48:19;100890.18;;;0.04;64.39
40692;BME280;26377;53.344;14.886;2022-12-10T13:51:09;100892.83;;;0.01;64.38
40692;BME280;26377;53.344;14.886;2022-12-10T13:53:49;100896.33;;;0.00;64.38
40692;BME280;26377;53.344;14.886;2022-12-10T13:56:28;100896.33;;;-0.02;64.47
40692;BME280;26377;53.344;14.886;2022-12-10T14:05:27;100908.97;;;-0.09;64.35
40692;BME280;26377;53.344;14.886;2022-12-10T14:07:56;100905.99;;;-0.16;64.27
40692;BME280;26377;53.344;14.886;2022-12-10T14:10:32;100908.61;;;-0.22;64.27
40692;BME280;26377;53.344;14.886;2022-12-10T14:13:03;100909.07;;;-0.22;64.37
40692;BME280;26377;53.344;14.886;2022-12-10T14:15:33;100900.38;;;-0.23;64.46
40692;BME280;26377;53.344;14.886;2022-12-10T14:18:09;100899.06;;;-0.21;64.52
40692;BME280;26377;53.344;14.886;2022-12-10T14:20:43;100890.78;;;-0.19;64.46
40692;BME280;26377;53.344;14.886;2022-12-10T14:23:26;100892.09;;;-0.19;64.50
40692;BME280;26377;53.344;14.886;2022-12-10T14:28:53;100895.16;;;-0.24;64.47
40692;BME280;26377;53.344;14.886;2022-12-10T14:31:28;100899.53;;;-0.26;64.47
40692;BME280;26377;53.344;14.886;2022-12-10T14:34:03;100896.93;;;-0.26;64.51
40692;BME280;26377;53.344;14.886;2022-12-10T14:36:37;100898.23;;;-0.26;64.55
40692;BME280;26377;53.344;14.886;2022-12-10T14:39:20;100894.32;;;-0.26;64.54
40692;BME280;26377;53.344;14.886;2022-12-10T14:41:48;100892.59;;;-0.27;64.56
40692;BME280;26377;53.344;14.886;2022-12-10T14:44:18;100894.75;;;-0.28;64.59
40692;BME280;26377;53.344;14.886;2022-12-10T14:46:47;100893.45;;;-0.28;64.62
40692;BME280;26377;53.344;14.886;2022-12-10T14:49:24;100892.14;;;-0.27;64.70
40692;BME280;26377;53.344;14.886;2022-12-10T14:51:49;100890.83;;;-0.24;64.78
40692;BME280;26377;53.344;14.886;2022-12-10T14:57:06;100898.64;;;-0.21;64.81
40692;BME280;26377;53.344;14.886;2022-12-10T14:59:44;100895.15;;;-0.20;64.83